Time,TemperatureF,DewpointF,PressureIn,WindDirection,WindDirectionDegrees,WindSpeedMPH,WindSpeedGustMPH,Humidity,HourlyPrecipIn,Conditions,Clouds,dailyrainin,SoftwareType,DateUTC
2013-01-12 00:08:00,73.9,67.7,30.02,East,90,3.7,-999.0,81,-99.99,,,0.00,Acu-Link.com,2013-01-12 05:08:00,
2013-01-12 00:23:00,74.1,67.9,30.01,SE,135,2.2,-999.0,81,-99.99,,,0.00,Acu-Link.com,2013-01-12 05:23:00,
2013-01-12 00:38:00,74.1,67.9,30.02,ESE,112,4.7,-999.0,81,-99.99,,,0.00,Acu-Link.com,2013-01-12 05:38:00,
2013-01-12 00:53:00,74.3,68.1,30.02,East,90,5.3,-999.0,81,-99.99,,,0.00,Acu-Link.com,2013-01-12 05:53:00,
2013-01-12 01:08:00,74.1,68.6,30.02,ESE,112,6.8,-999.0,83,-99.99,,,0.00,Acu-Link.com,2013-01-12 06:08:00,
2013-01-12 01:23:00,73.8,68.7,30.02,ESE,112,6.3,-999.0,84,-99.99,,,0.00,Acu-Link.com,2013-01-12 06:23:00,
2013-01-12 01:38:00,73.2,69.1,30.01,SE,135,8.3,-999.0,87,-99.99,,,0.00,Acu-Link.com,2013-01-12 06:38:00,
2013-01-12 01:53:00,73.0,68.9,30.01,ESE,112,5.3,-999.0,87,-99.99,,,0.00,Acu-Link.com,2013-01-12 06:53:00,
2013-01-12 02:08:00,73.2,68.8,30.01,ESE,112,5.8,-999.0,86,-99.99,,,0.00,Acu-Link.com,2013-01-12 07:08:00,
2013-01-12 02:24:00,73.8,68.3,30.00,ESE,112,3.2,-999.0,83,-99.99,,,0.00,Acu-Link.com,2013-01-12 07:24:00,
2013-01-12 02:39:00,73.8,68.3,30.01,ESE,112,4.2,-999.0,83,-99.99,,,0.00,Acu-Link.com,2013-01-12 07:39:00,
2013-01-12 02:54:00,73.4,68.3,30.00,ESE,112,6.8,-999.0,84,-99.99,,,0.00,Acu-Link.com,2013-01-12 07:54:00,
2013-01-12 03:09:00,73.4,67.2,29.99,ESE,112,4.2,-999.0,81,-99.99,,,0.00,Acu-Link.com,2013-01-12 08:09:00,
2013-01-12 03:24:00,73.2,67.0,29.99,NE,45,3.7,-999.0,81,-99.99,,,0.00,Acu-Link.com,2013-01-12 08:24:00,
2013-01-12 03:39:00,73.2,67.0,29.99,ESE,112,5.3,-999.0,81,-99.99,,,0.00,Acu-Link.com,2013-01-12 08:39:00,
2013-01-12 03:54:00,73.9,67.0,29.99,East,90,8.9,-999.0,79,-99.99,,,0.00,Acu-Link.com,2013-01-12 08:54:00,
2013-01-12 04:09:00,73.8,66.9,29.99,ESE,112,6.3,-999.0,79,-99.99,,,0.00,Acu-Link.com,2013-01-12 09:09:00,
2013-01-12 04:25:00,72.5,67.7,29.99,ESE,112,3.7,-999.0,85,-99.99,,,0.00,Acu-Link.com,2013-01-12 09:25:00,
2013-01-12 04:40:00,73.0,67.2,29.99,ESE,112,5.8,-999.0,82,-99.99,,,0.00,Acu-Link.com,2013-01-12 09:40:00,
2013-01-12 04:55:00,73.2,67.4,29.98,East,90,9.9,-999.0,82,-99.99,,,0.00,Acu-Link.com,2013-01-12 09:55:00,
2013-01-12 05:10:00,73.0,67.2,29.98,ESE,112,2.7,-999.0,82,-99.99,,,0.00,Acu-Link.com,2013-01-12 10:10:00,
2013-01-12 05:26:00,72.5,67.0,29.99,ESE,112,6.8,-999.0,83,-99.99,,,0.00,Acu-Link.com,2013-01-12 10:26:00,
2013-01-12 05:41:00,72.5,67.0,29.99,SE,135,3.2,-999.0,83,-99.99,,,0.00,Acu-Link.com,2013-01-12 10:41:00,
2013-01-12 05:56:00,72.7,66.9,29.99,East,90,6.3,-999.0,82,-99.99,,,0.00,Acu-Link.com,2013-01-12 10:56:00,
2013-01-12 06:11:00,73.2,67.0,30.01,East,90,6.8,-999.0,81,-99.99,,,0.00,Acu-Link.com,2013-01-12 11:11:00,
2013-01-12 06:26:00,73.2,66.6,30.01,ESE,112,3.7,-999.0,80,-99.99,,,0.00,Acu-Link.com,2013-01-12 11:26:00,
2013-01-12 06:41:00,73.4,66.8,30.01,ENE,67,5.3,-999.0,80,-99.99,,,0.00,Acu-Link.com,2013-01-12 11:41:00,
2013-01-12 06:56:00,73.4,66.5,30.02,ESE,112,2.2,-999.0,79,-99.99,,,0.00,Acu-Link.com,2013-01-12 11:56:00,
2013-01-12 07:12:00,73.4,66.5,30.01,East,90,3.2,-999.0,79,-99.99,,,0.00,Acu-Link.com,2013-01-12 12:12:00,
2013-01-12 07:27:00,73.6,67.0,30.02,ENE,67,5.3,-999.0,80,-99.99,,,0.00,Acu-Link.com,2013-01-12 12:27:00,
2013-01-12 07:42:00,73.8,66.9,30.02,ESE,112,7.8,-999.0,79,-99.99,,,0.00,Acu-Link.com,2013-01-12 12:42:00,
2013-01-12 07:57:00,74.3,67.4,30.02,ESE,112,5.8,-999.0,79,-99.99,,,0.00,Acu-Link.com,2013-01-12 12:57:00,
2013-01-12 08:12:00,74.5,67.2,30.02,ESE,112,4.7,-999.0,78,-99.99,,,0.00,Acu-Link.com,2013-01-12 13:12:00,
2013-01-12 08:27:00,75.2,67.5,30.03,ESE,112,7.8,-999.0,77,-99.99,,,0.00,Acu-Link.com,2013-01-12 13:27:00,
2013-01-12 08:42:00,75.7,67.6,30.02,ESE,112,5.8,-999.0,76,-99.99,,,0.00,Acu-Link.com,2013-01-12 13:42:00,
2013-01-12 08:57:00,77.0,68.1,30.03,ESE,112,5.3,-999.0,74,-99.99,,,0.00,Acu-Link.com,2013-01-12 13:57:00,
2013-01-12 09:12:00,77.5,67.7,30.03,SE,135,6.3,-999.0,72,-99.99,,,0.00,Acu-Link.com,2013-01-12 14:12:00,
2013-01-12 09:28:00,77.7,67.5,30.03,ESE,112,9.9,-999.0,71,-99.99,,,0.00,Acu-Link.com,2013-01-12 14:28:00,
2013-01-12 09:43:00,78.3,66.4,30.04,ESE,112,8.3,-999.0,67,-99.99,,,0.00,Acu-Link.com,2013-01-12 14:43:00,
2013-01-12 09:58:00,78.3,66.8,30.04,East,90,3.7,-999.0,68,-99.99,,,0.00,Acu-Link.com,2013-01-12 14:58:00,
2013-01-12 10:13:00,78.3,66.8,30.03,ESE,112,8.9,-999.0,68,-99.99,,,0.00,Acu-Link.com,2013-01-12 15:13:00,
2013-01-12 10:28:00,77.9,67.3,30.03,ESE,112,11.4,-999.0,70,-99.99,,,0.00,Acu-Link.com,2013-01-12 15:28:00,
2013-01-12 10:43:00,78.8,67.3,30.02,SE,135,8.9,-999.0,68,-99.99,,,0.00,Acu-Link.com,2013-01-12 15:43:00,
2013-01-12 10:58:00,79.2,67.3,30.03,ESE,112,10.9,-999.0,67,-99.99,,,0.00,Acu-Link.com,2013-01-12 15:58:00,
2013-01-12 11:13:00,78.4,66.9,30.01,ESE,112,8.9,-999.0,68,-99.99,,,0.00,Acu-Link.com,2013-01-12 16:13:00,
2013-01-12 11:29:00,78.6,66.7,30.01,SE,135,8.3,-999.0,67,-99.99,,,0.00,Acu-Link.com,2013-01-12 16:29:00,
2013-01-12 11:44:00,79.2,67.3,30.01,East,90,6.3,-999.0,67,-99.99,,,0.00,Acu-Link.com,2013-01-12 16:44:00,
2013-01-12 11:59:00,80.6,66.8,30.00,ESE,112,11.4,-999.0,63,-99.99,,,0.00,Acu-Link.com,2013-01-12 16:59:00,
2013-01-12 12:14:00,79.5,67.1,29.99,SSE,157,9.4,-999.0,66,-99.99,,,0.00,Acu-Link.com,2013-01-12 17:14:00,
2013-01-12 12:29:00,80.1,67.3,29.98,ESE,112,4.7,-999.0,65,-99.99,,,0.00,Acu-Link.com,2013-01-12 17:29:00,
2013-01-12 12:44:00,81.0,66.7,29.98,East,90,6.3,-999.0,62,-99.99,,,0.00,Acu-Link.com,2013-01-12 17:44:00,
2013-01-12 13:00:00,80.1,66.8,29.98,SSE,157,9.9,-999.0,64,-99.99,,,0.00,Acu-Link.com,2013-01-12 18:00:00,
2013-01-12 13:15:00,81.0,65.8,29.97,East,90,5.8,-999.0,60,-99.99,,,0.00,Acu-Link.com,2013-01-12 18:15:00,
2013-01-12 13:30:00,80.1,66.8,29.97,ESE,112,6.3,-999.0,64,-99.99,,,0.00,Acu-Link.com,2013-01-12 18:30:00,
2013-01-12 13:45:00,79.0,65.8,29.97,SE,135,4.7,-999.0,64,-99.99,,,0.00,Acu-Link.com,2013-01-12 18:45:00,
2013-01-12 14:01:00,78.6,65.4,29.97,East,90,9.4,-999.0,64,-99.99,,,0.00,Acu-Link.com,2013-01-12 19:01:00,
2013-01-12 14:16:00,79.2,66.4,29.96,ESE,112,3.2,-999.0,65,-99.99,,,0.00,Acu-Link.com,2013-01-12 19:16:00,
2013-01-12 14:31:00,79.2,66.0,29.95,ESE,112,8.3,-999.0,64,-99.99,,,0.00,Acu-Link.com,2013-01-12 19:31:00,
2013-01-12 14:46:00,80.6,65.4,29.95,ESE,112,10.4,-999.0,60,-99.99,,,0.00,Acu-Link.com,2013-01-12 19:46:00,
2013-01-12 15:01:00,79.5,66.7,29.95,ESE,112,8.9,-999.0,65,-99.99,,,0.00,Acu-Link.com,2013-01-12 20:01:00,
2013-01-12 15:16:00,79.3,65.1,29.95,ESE,112,6.3,-999.0,62,-99.99,,,0.00,Acu-Link.com,2013-01-12 20:16:00,
2013-01-12 15:31:00,79.2,67.3,29.96,ESE,112,5.8,-999.0,67,-99.99,,,0.00,Acu-Link.com,2013-01-12 20:31:00,
2013-01-12 15:46:00,78.1,65.8,29.95,SE,135,4.2,-999.0,66,-99.99,,,0.00,Acu-Link.com,2013-01-12 20:46:00,
2013-01-12 16:01:00,78.3,66.4,29.95,ESE,112,7.8,-999.0,67,-99.99,,,0.00,Acu-Link.com,2013-01-12 21:01:00,
2013-01-12 16:17:00,77.9,66.0,29.96,ESE,112,9.4,-999.0,67,-99.99,,,0.00,Acu-Link.com,2013-01-12 21:17:00,
2013-01-12 16:32:00,77.2,66.2,29.95,ESE,112,8.9,-999.0,69,-99.99,,,0.00,Acu-Link.com,2013-01-12 21:32:00,
2013-01-12 16:47:00,77.4,66.8,29.96,ESE,112,3.2,-999.0,70,-99.99,,,0.00,Acu-Link.com,2013-01-12 21:47:00,
2013-01-12 17:02:00,76.3,66.2,29.97,ESE,112,6.8,-999.0,71,-99.99,,,0.00,Acu-Link.com,2013-01-12 22:02:00,
2013-01-12 17:17:00,76.1,66.4,29.97,ESE,112,4.2,-999.0,72,-99.99,,,0.00,Acu-Link.com,2013-01-12 22:17:00,
2013-01-12 17:32:00,75.7,65.6,29.97,ESE,112,2.7,-999.0,71,-99.99,,,0.00,Acu-Link.com,2013-01-12 22:32:00,
2013-01-12 17:47:00,75.0,65.3,29.98,ESE,112,3.7,-999.0,72,-99.99,,,0.00,Acu-Link.com,2013-01-12 22:47:00,
2013-01-12 18:02:00,74.5,65.7,29.98,ESE,112,3.7,-999.0,74,-99.99,,,0.00,Acu-Link.com,2013-01-12 23:02:00,
2013-01-12 18:18:00,73.9,65.5,29.97,ESE,112,1.7,-999.0,75,-99.99,,,0.00,Acu-Link.com,2013-01-12 23:18:00,
2013-01-12 18:33:00,73.6,65.9,29.98,ESE,112,1.7,-999.0,77,-99.99,,,0.00,Acu-Link.com,2013-01-12 23:33:00,
2013-01-12 18:48:00,73.2,65.9,29.97,ESE,112,4.2,-999.0,78,-99.99,,,0.00,Acu-Link.com,2013-01-12 23:48:00,
2013-01-12 19:03:00,72.7,65.8,29.98,ESE,112,0.0,-999.0,79,-99.99,,,0.00,Acu-Link.com,2013-01-13 00:03:00,
2013-01-12 19:18:00,72.3,65.8,29.99,East,90,0.0,-999.0,80,-99.99,,,0.00,Acu-Link.com,2013-01-13 00:18:00,
2013-01-12 19:33:00,71.8,65.6,29.99,East,90,0.0,-999.0,81,-99.99,,,0.00,Acu-Link.com,2013-01-13 00:33:00,
2013-01-12 19:48:00,71.4,65.6,29.98,ESE,112,1.7,-999.0,82,-99.99,,,0.00,Acu-Link.com,2013-01-13 00:48:00,
2013-01-12 20:03:00,71.1,65.7,29.98,ESE,112,0.0,-999.0,83,-99.99,,,0.00,Acu-Link.com,2013-01-13 01:03:00,
2013-01-12 20:18:00,70.3,65.6,29.99,ESE,112,0.0,-999.0,85,-99.99,,,0.00,Acu-Link.com,2013-01-13 01:18:00,
2013-01-12 20:33:00,69.8,65.1,29.98,ESE,112,0.0,-999.0,85,-99.99,,,0.00,Acu-Link.com,2013-01-13 01:33:00,
2013-01-12 20:49:00,68.9,65.5,29.99,ESE,112,0.0,-999.0,89,-99.99,,,0.00,Acu-Link.com,2013-01-13 01:49:00,
2013-01-12 21:04:00,68.5,65.1,29.98,ESE,112,0.0,-999.0,89,-99.99,,,0.00,Acu-Link.com,2013-01-13 02:04:00,
2013-01-12 21:19:00,68.2,66.1,29.99,ESE,112,0.0,-999.0,93,-99.99,,,0.00,Acu-Link.com,2013-01-13 02:19:00,
2013-01-12 21:34:00,67.8,65.7,29.97,ESE,112,0.0,-999.0,93,-99.99,,,0.00,Acu-Link.com,2013-01-13 02:34:00,
2013-01-12 21:49:00,67.8,66.0,29.98,ESE,112,0.0,-999.0,94,-99.99,,,0.00,Acu-Link.com,2013-01-13 02:49:00,
2013-01-12 22:04:00,68.0,66.2,29.97,ESE,112,0.0,-999.0,94,-99.99,,,0.00,Acu-Link.com,2013-01-13 03:04:00,
2013-01-12 22:19:00,68.4,66.3,29.97,East,90,1.7,-999.0,93,-99.99,,,0.00,Acu-Link.com,2013-01-13 03:19:00,
2013-01-12 22:35:00,68.7,66.3,29.97,East,90,0.0,-999.0,92,-99.99,,,0.00,Acu-Link.com,2013-01-13 03:35:00,
2013-01-12 22:50:00,68.5,66.1,29.97,East,90,1.7,-999.0,92,-99.99,,,0.00,Acu-Link.com,2013-01-13 03:50:00,
2013-01-12 23:05:00,68.9,66.8,29.96,East,90,2.2,-999.0,93,-99.99,,,0.00,Acu-Link.com,2013-01-13 04:05:00,
2013-01-12 23:20:00,68.9,66.8,29.96,East,90,1.7,-999.0,93,-99.99,,,0.00,Acu-Link.com,2013-01-13 04:20:00,
2013-01-12 23:35:00,68.9,66.8,29.96,ESE,112,0.0,-999.0,93,-99.99,,,0.00,Acu-Link.com,2013-01-13 04:35:00,
2013-01-12 23:50:00,69.3,66.2,29.96,ESE,112,3.2,-999.0,90,-99.99,,,0.00,Acu-Link.com,2013-01-13 04:50:00,